Time;durP1;ratioP1;P1;durP2;ratioP2;P2;SDS_P1;SDS_P2;PMS_P1;PMS_P2;Temp;Humidity;BMP_temperature;BMP_pressure;BME280_temperature;BME280_humidity;BME280_pressure;Samples;Min_cycle;Max_cycle;Signal;HPM_P1;HPM_P2
2023/04/18 00:01:25;;;;;;;23.67;15.48;;;;;;;;;;5015469;28;20032;-73
2023/04/18 00:03:52;;;;;;;25.48;15.63;;;;;;;;;;5015870;28;20379;-73
2023/04/18 00:06:20;;;;;;;24.33;16.27;;;;;;;;;;5043737;28;20021;-73
2023/04/18 00:08:47;;;;;;;26.75;16.00;;;;;;;;;;5035078;28;20498;-73
2023/04/18 00:11:13;;;;;;;22.67;15.52;;;;;;;;;;5057340;28;20018;-73
2023/04/18 00:13:39;;;;;;;27.55;18.92;;;;;;;;;;5058271;28;20028;-73
2023/04/18 00:16:07;;;;;;;23.83;16.65;;;;;;;;;;5036228;28;20074;-72
2023/04/18 00:18:33;;;;;;;27.88;18.30;;;;;;;;;;5052704;28;20445;-73
2023/04/18 00:20:59;;;;;;;22.75;17.35;;;;;;;;;;5035059;28;20090;-73
2023/04/18 00:23:26;;;;;;;26.67;18.25;;;;;;;;;;5052928;28;20025;-73
2023/04/18 00:25:53;;;;;;;27.27;19.40;;;;;;;;;;5052745;28;20384;-74
2023/04/18 00:28:19;;;;;;;26.90;19.35;;;;;;;;;;5052446;28;20033;-74
2023/04/18 00:30:45;;;;;;;29.23;19.05;;;;;;;;;;5052305;28;20025;-74
2023/04/18 00:33:11;;;;;;;27.80;19.80;;;;;;;;;;5052591;28;20437;-73
2023/04/18 00:35:37;;;;;;;26.90;18.27;;;;;;;;;;5052398;28;20017;-74
2023/04/18 00:38:03;;;;;;;26.27;19.23;;;;;;;;;;5052292;28;20418;-73
2023/04/18 00:40:29;;;;;;;30.85;21.02;;;;;;;;;;5052451;28;20032;-74
2023/04/18 00:42:55;;;;;;;26.83;19.90;;;;;;;;;;5052653;28;20505;-73
2023/04/18 00:45:21;;;;;;;29.80;20.88;;;;;;;;;;5052185;28;20418;-73
2023/04/18 00:47:47;;;;;;;27.55;19.92;;;;;;;;;;5034133;28;20487;-74
2023/04/18 00:50:14;;;;;;;28.80;20.88;;;;;;;;;;5052392;28;20119;-73
2023/04/18 00:52:40;;;;;;;27.98;21.48;;;;;;;;;;5034196;28;20104;-73
2023/04/18 00:55:07;;;;;;;33.30;22.27;;;;;;;;;;5051840;28;20383;-73
2023/04/18 00:57:34;;;;;;;31.13;22.63;;;;;;;;;;5051732;28;20032;-73
2023/04/18 01:00:01;;;;;;;31.63;23.83;;;;;;;;;;5051840;28;20104;-73
2023/04/18 01:02:30;;;;;;;30.67;23.98;;;;;;;;;;5051996;28;20461;-73
2023/04/18 01:04:59;;;;;;;29.45;23.88;;;;;;;;;;5051825;28;20025;-73
2023/04/18 01:07:26;;;;;;;39.83;26.58;;;;;;;;;;5051750;28;20016;-73
2023/04/18 01:09:52;;;;;;;35.08;26.65;;;;;;;;;;5051740;28;20017;-73
2023/04/18 01:12:18;;;;;;;37.92;27.20;;;;;;;;;;5051647;28;20075;-73
2023/04/18 01:14:44;;;;;;;37.85;29.00;;;;;;;;;;5051598;28;20410;-73
2023/04/18 01:17:12;;;;;;;38.00;29.27;;;;;;;;;;5051481;28;20399;-73
2023/04/18 01:19:38;;;;;;;37.42;29.70;;;;;;;;;;5051646;28;20024;-73
2023/04/18 01:22:05;;;;;;;40.17;31.35;;;;;;;;;;5051541;28;20044;-73
2023/04/18 01:24:35;;;;;;;40.05;31.50;;;;;;;;;;5051589;28;20052;-73
2023/04/18 01:27:02;;;;;;;35.97;29.75;;;;;;;;;;5033489;28;20017;-73
2023/04/18 01:29:28;;;;;;;37.38;30.33;;;;;;;;;;5051777;28;20025;-73
2023/04/18 01:31:54;;;;;;;40.92;33.08;;;;;;;;;;5051604;28;20479;-73
2023/04/18 01:34:20;;;;;;;38.88;31.80;;;;;;;;;;5033611;28;20025;-73
2023/04/18 01:36:46;;;;;;;40.60;33.33;;;;;;;;;;5033327;28;20121;-73
2023/04/18 01:39:13;;;;;;;38.55;32.17;;;;;;;;;;5051150;28;20475;-73
2023/04/18 01:41:39;;;;;;;37.45;31.27;;;;;;;;;;5051098;28;20025;-73
2023/04/18 01:44:05;;;;;;;40.00;32.75;;;;;;;;;;5051762;28;20035;-73
2023/04/18 01:46:31;;;;;;;42.60;30.38;;;;;;;;;;5051383;28;20029;-73
2023/04/18 01:48:58;;;;;;;39.88;32.50;;;;;;;;;;5051103;28;20033;-73
2023/04/18 01:51:26;;;;;;;42.42;34.10;;;;;;;;;;5051150;28;20028;-73
2023/04/18 01:53:52;;;;;;;41.13;34.05;;;;;;;;;;5051261;28;20082;-73
2023/04/18 01:56:18;;;;;;;41.92;33.78;;;;;;;;;;5050915;28;20116;-73
2023/04/18 01:58:45;;;;;;;42.15;34.25;;;;;;;;;;5051057;28;20025;-73
2023/04/18 02:01:11;;;;;;;46.70;37.25;;;;;;;;;;5051194;28;20021;-74
2023/04/18 02:03:37;;;;;;;50.08;36.63;;;;;;;;;;5051189;28;20418;-73
2023/04/18 02:06:03;;;;;;;49.33;38.83;;;;;;;;;;5051064;28;20017;-73
2023/04/18 02:08:31;;;;;;;50.17;36.65;;;;;;;;;;5050736;28;20035;-74
2023/04/18 02:10:57;;;;;;;49.58;37.40;;;;;;;;;;5030271;28;20079;-73
2023/04/18 02:13:24;;;;;;;49.33;37.33;;;;;;;;;;5050343;28;20025;-73
2023/04/18 02:15:50;;;;;;;50.00;37.78;;;;;;;;;;5050440;28;20092;-74
2023/04/18 02:18:17;;;;;;;51.17;38.70;;;;;;;;;;5046937;28;20033;-74
2023/04/18 02:20:43;;;;;;;54.85;39.38;;;;;;;;;;5052796;28;20438;-73
2023/04/18 02:23:09;;;;;;;50.97;37.85;;;;;;;;;;5059584;28;20013;-73
2023/04/18 02:25:35;;;;;;;52.42;39.03;;;;;;;;;;5057273;28;20545;-74
2023/04/18 02:28:01;;;;;;;51.80;37.33;;;;;;;;;;5055244;28;20025;-73
2023/04/18 02:30:27;;;;;;;50.13;37.05;;;;;;;;;;5055204;28;20025;-73
2023/04/18 02:32:55;;;;;;;50.30;38.08;;;;;;;;;;5036670;28;20402;-72
2023/04/18 02:35:22;;;;;;;48.22;36.22;;;;;;;;;;5054850;28;20025;-73
2023/04/18 02:37:48;;;;;;;48.33;36.45;;;;;;;;;;5054503;28;20024;-73
2023/04/18 02:40:14;;;;;;;49.08;37.58;;;;;;;;;;5054778;28;20021;-72
2023/04/18 02:42:40;;;;;;;50.33;35.88;;;;;;;;;;5054615;28;20032;-73
2023/04/18 02:45:06;;;;;;;48.88;36.30;;;;;;;;;;5054985;28;20028;-73
2023/04/18 02:47:32;;;;;;;47.63;36.33;;;;;;;;;;5054117;28;20479;-74
2023/04/18 02:49:58;;;;;;;54.38;37.08;;;;;;;;;;5054761;28;20535;-74
2023/04/18 02:52:25;;;;;;;47.50;35.35;;;;;;;;;;5054453;28;20106;-74
2023/04/18 02:54:51;;;;;;;48.15;36.17;;;;;;;;;;5054454;28;20503;-74
2023/04/18 02:57:17;;;;;;;50.90;35.83;;;;;;;;;;5054262;28;20499;-73
2023/04/18 02:59:43;;;;;;;49.53;36.42;;;;;;;;;;5054754;28;20044;-74
2023/04/18 03:02:09;;;;;;;52.00;36.60;;;;;;;;;;5054131;28;20040;-74
2023/04/18 03:04:35;;;;;;;45.55;35.65;;;;;;;;;;5054355;28;20024;-74
2023/04/18 03:07:01;;;;;;;50.20;36.88;;;;;;;;;;5036003;28;20017;-73
2023/04/18 03:09:27;;;;;;;49.30;35.13;;;;;;;;;;5054156;28;20017;-74
2023/04/18 03:11:53;;;;;;;46.60;35.65;;;;;;;;;;5057062;28;20029;-74
2023/04/18 03:14:19;;;;;;;43.92;33.70;;;;;;;;;;5059681;28;20028;-74
2023/04/18 03:16:45;;;;;;;42.95;32.78;;;;;;;;;;5055262;28;20025;-74
2023/04/18 03:19:11;;;;;;;44.03;33.45;;;;;;;;;;5054048;28;20052;-74
2023/04/18 03:21:37;;;;;;;45.28;34.00;;;;;;;;;;5053981;28;20055;-75
2023/04/18 03:24:03;;;;;;;43.97;32.30;;;;;;;;;;5036122;28;20025;-73
2023/04/18 03:26:30;;;;;;;44.40;32.70;;;;;;;;;;5036003;28;20025;-74
2023/04/18 03:28:56;;;;;;;42.03;33.38;;;;;;;;;;5053513;28;20083;-73
2023/04/18 03:31:22;;;;;;;41.85;32.33;;;;;;;;;;5035873;28;20079;-73
2023/04/18 03:33:50;;;;;;;38.45;30.08;;;;;;;;;;5052691;28;20025;-74
2023/04/18 03:36:17;;;;;;;42.47;31.30;;;;;;;;;;5053723;28;20043;-73
2023/04/18 03:38:43;;;;;;;42.03;31.45;;;;;;;;;;5053523;28;20028;-72
2023/04/18 03:41:09;;;;;;;42.10;30.90;;;;;;;;;;5053603;28;20021;-73
2023/04/18 03:43:35;;;;;;;46.50;34.83;;;;;;;;;;5054295;28;20112;-74
2023/04/18 03:46:01;;;;;;;48.22;33.00;;;;;;;;;;5054114;28;20027;-73
2023/04/18 03:48:34;;;;;;;42.28;32.80;;;;;;;;;;5053425;28;20029;-72
2023/04/18 03:51:00;;;;;;;46.33;34.30;;;;;;;;;;5053402;28;20410;-72
2023/04/18 03:53:26;;;;;;;44.65;32.15;;;;;;;;;;5053504;28;20021;-72
2023/04/18 03:55:52;;;;;;;47.28;36.05;;;;;;;;;;5035438;28;20032;-73
2023/04/18 03:58:22;;;;;;;48.20;35.20;;;;;;;;;;5035071;28;20427;-73
2023/04/18 04:00:48;;;;;;;46.47;35.05;;;;;;;;;;5053026;28;20028;-72
2023/04/18 04:03:14;;;;;;;51.30;34.60;;;;;;;;;;5035315;28;20627;-72
2023/04/18 04:05:40;;;;;;;49.35;35.10;;;;;;;;;;5052860;28;20021;-73
2023/04/18 04:08:06;;;;;;;51.13;34.78;;;;;;;;;;5052708;28;20025;-73
2023/04/18 04:10:32;;;;;;;50.65;35.55;;;;;;;;;;5052911;28;20028;-72
2023/04/18 04:12:58;;;;;;;47.70;34.40;;;;;;;;;;5034955;28;20018;-73
2023/04/18 04:15:24;;;;;;;54.80;36.88;;;;;;;;;;5052485;28;20091;-73
2023/04/18 04:17:50;;;;;;;50.60;35.70;;;;;;;;;;5052322;28;20021;-72
2023/04/18 04:20:22;;;;;;;51.25;35.85;;;;;;;;;;5052736;28;20090;-74
2023/04/18 04:22:49;;;;;;;52.65;36.97;;;;;;;;;;5052655;28;20040;-73
2023/04/18 04:25:16;;;;;;;52.30;35.88;;;;;;;;;;5035127;28;20557;-73
2023/04/18 04:27:43;;;;;;;53.97;36.75;;;;;;;;;;5052333;28;20028;-73
2023/04/18 04:30:09;;;;;;;49.33;35.28;;;;;;;;;;5052755;28;20499;-73
2023/04/18 04:32:37;;;;;;;53.08;35.10;;;;;;;;;;5052565;28;20033;-75
2023/04/18 04:35:03;;;;;;;53.90;36.20;;;;;;;;;;5036307;28;20021;-73
2023/04/18 04:37:29;;;;;;;57.30;37.50;;;;;;;;;;5034356;28;20364;-72
2023/04/18 04:39:55;;;;;;;58.80;37.13;;;;;;;;;;5052482;28;20036;-73
2023/04/18 04:42:23;;;;;;;55.72;36.58;;;;;;;;;;5034374;28;20133;-72
2023/04/18 04:44:52;;;;;;;55.05;36.22;;;;;;;;;;5033947;28;20021;-75
2023/04/18 04:47:18;;;;;;;56.38;36.55;;;;;;;;;;5052298;28;20035;-74
2023/04/18 04:49:44;;;;;;;51.70;34.85;;;;;;;;;;5052158;28;20475;-74
2023/04/18 04:52:10;;;;;;;54.10;35.15;;;;;;;;;;5052133;28;20037;-74
2023/04/18 04:54:36;;;;;;;50.45;33.15;;;;;;;;;;5033992;28;20029;-73
2023/04/18 04:57:03;;;;;;;50.78;34.40;;;;;;;;;;5051771;28;20032;-74
2023/04/18 04:59:29;;;;;;;51.97;35.05;;;;;;;;;;5052098;28;20372;-73
2023/04/18 05:01:56;;;;;;;52.88;34.72;;;;;;;;;;5051881;28;20044;-74
2023/04/18 05:04:23;;;;;;;51.17;34.90;;;;;;;;;;5051754;28;20025;-74
2023/04/18 05:06:49;;;;;;;52.78;36.53;;;;;;;;;;5051394;28;20349;-74
2023/04/18 05:09:15;;;;;;;53.75;36.53;;;;;;;;;;5051283;28;20028;-74
2023/04/18 05:11:44;;;;;;;51.17;35.88;;;;;;;;;;5051784;28;20397;-72
2023/04/18 05:14:11;;;;;;;61.90;40.05;;;;;;;;;;5051514;28;20021;-73
2023/04/18 05:16:37;;;;;;;60.33;37.03;;;;;;;;;;5033203;28;20040;-75
2023/04/18 05:19:03;;;;;;;53.45;36.22;;;;;;;;;;5034965;28;20021;-74
2023/04/18 05:21:30;;;;;;;59.85;36.15;;;;;;;;;;5054627;28;20029;-73
2023/04/18 05:23:57;;;;;;;55.88;36.88;;;;;;;;;;5054376;28;20144;-74
2023/04/18 05:26:23;;;;;;;58.05;35.63;;;;;;;;;;5033729;28;20025;-74
2023/04/18 05:28:49;;;;;;;57.33;36.30;;;;;;;;;;5051956;28;20029;-74
2023/04/18 05:31:15;;;;;;;55.35;33.53;;;;;;;;;;5052077;28;20032;-74
2023/04/18 05:33:41;;;;;;;47.05;32.03;;;;;;;;;;5051663;28;20047;-73
2023/04/18 05:36:07;;;;;;;55.33;34.38;;;;;;;;;;5051041;28;20081;-74
2023/04/18 05:38:33;;;;;;;45.97;31.08;;;;;;;;;;5050829;28;20047;-74
2023/04/18 05:41:01;;;;;;;49.22;32.67;;;;;;;;;;5051026;28;20445;-74
2023/04/18 05:43:27;;;;;;;48.85;31.48;;;;;;;;;;5051670;28;20497;-73
2023/04/18 05:45:53;;;;;;;55.03;31.38;;;;;;;;;;5051513;28;20033;-74
2023/04/18 05:48:21;;;;;;;49.10;30.55;;;;;;;;;;5051103;28;20060;-73
2023/04/18 05:50:47;;;;;;;46.83;31.23;;;;;;;;;;5051025;28;20029;-74
2023/04/18 05:53:13;;;;;;;52.33;33.75;;;;;;;;;;5033527;28;20478;-74
2023/04/18 05:55:39;;;;;;;50.75;31.45;;;;;;;;;;5072819;22;20053;-75
2023/04/18 05:58:06;;;;;;;47.70;31.48;;;;;;;;;;5009296;28;20042;-73
2023/04/18 06:00:32;;;;;;;49.70;30.98;;;;;;;;;;5009129;28;20109;-73
2023/04/18 06:02:58;;;;;;;49.90;30.20;;;;;;;;;;5011417;28;20052;-71
2023/04/18 06:05:24;;;;;;;44.45;29.10;;;;;;;;;;5011076;28;20484;-73
2023/04/18 06:07:50;;;;;;;46.03;28.38;;;;;;;;;;5000915;28;20101;-73
2023/04/18 06:10:16;;;;;;;41.10;27.63;;;;;;;;;;5005056;28;20061;-72
2023/04/18 06:12:42;;;;;;;40.70;26.83;;;;;;;;;;4993627;28;20500;-73
2023/04/18 06:15:09;;;;;;;36.10;24.80;;;;;;;;;;4991676;28;20022;-73
2023/04/18 06:17:35;;;;;;;32.70;23.25;;;;;;;;;;4991894;28;20041;-73
2023/04/18 06:20:01;;;;;;;34.35;25.13;;;;;;;;;;5003032;28;20026;-71
2023/04/18 06:22:27;;;;;;;35.92;25.48;;;;;;;;;;4999142;28;20054;-73
2023/04/18 06:24:54;;;;;;;38.70;25.70;;;;;;;;;;5005978;28;20041;-73
2023/04/18 06:27:20;;;;;;;38.20;24.52;;;;;;;;;;4996490;28;20540;-72
2023/04/18 06:29:46;;;;;;;37.25;25.65;;;;;;;;;;5001232;28;20054;-75
2023/04/18 06:32:12;;;;;;;36.72;23.90;;;;;;;;;;5003852;28;20104;-75
2023/04/18 06:34:39;;;;;;;43.75;26.23;;;;;;;;;;4992987;28;20145;-74
2023/04/18 06:37:05;;;;;;;39.15;26.70;;;;;;;;;;5003545;28;20014;-72
2023/04/18 06:39:31;;;;;;;47.15;26.73;;;;;;;;;;4997075;28;20038;-72
2023/04/18 06:41:57;;;;;;;41.38;27.27;;;;;;;;;;5009708;28;20048;-73
2023/04/18 06:44:23;;;;;;;42.22;27.55;;;;;;;;;;4995443;28;20444;-73
2023/04/18 06:46:49;;;;;;;43.85;27.40;;;;;;;;;;4993864;28;20042;-73
2023/04/18 06:49:15;;;;;;;48.95;27.75;;;;;;;;;;5005514;28;20362;-73
2023/04/18 06:51:41;;;;;;;43.75;27.65;;;;;;;;;;4999538;28;20033;-73
2023/04/18 06:54:07;;;;;;;43.30;26.75;;;;;;;;;;4998290;28;20033;-73
2023/04/18 06:56:33;;;;;;;41.53;27.70;;;;;;;;;;5006195;28;20042;-74
2023/04/18 06:58:59;;;;;;;40.38;26.00;;;;;;;;;;4993923;28;20080;-74
2023/04/18 07:01:25;;;;;;;44.85;27.63;;;;;;;;;;5005133;28;20030;-74
2023/04/18 07:03:51;;;;;;;46.53;28.02;;;;;;;;;;4998718;28;20022;-73
2023/04/18 07:06:17;;;;;;;49.97;29.00;;;;;;;;;;4990586;28;20105;-74
2023/04/18 07:08:44;;;;;;;41.83;27.30;;;;;;;;;;4996290;28;20473;-73
2023/04/18 07:11:12;;;;;;;42.60;27.67;;;;;;;;;;5000806;28;20079;-74
2023/04/18 07:13:38;;;;;;;40.42;26.95;;;;;;;;;;5005900;28;20034;-74
2023/04/18 07:16:04;;;;;;;43.75;25.58;;;;;;;;;;5006243;28;20033;-74
2023/04/18 07:18:30;;;;;;;48.03;26.75;;;;;;;;;;4997009;28;20528;-71
2023/04/18 07:20:56;;;;;;;43.60;27.70;;;;;;;;;;5010689;28;20030;-73
2023/04/18 07:23:23;;;;;;;43.40;27.35;;;;;;;;;;5000249;28;20113;-73
2023/04/18 07:25:49;;;;;;;40.13;27.17;;;;;;;;;;5004354;28;20029;-73
2023/04/18 07:28:15;;;;;;;38.28;26.25;;;;;;;;;;5007694;28;20109;-76
2023/04/18 07:30:41;;;;;;;43.33;25.75;;;;;;;;;;4996908;28;20029;-75
2023/04/18 07:33:07;;;;;;;43.97;26.92;;;;;;;;;;4997909;28;20357;-75
2023/04/18 07:35:34;;;;;;;42.13;26.63;;;;;;;;;;4998705;28;20038;-78
2023/04/18 07:38:00;;;;;;;40.00;28.00;;;;;;;;;;5006006;28;20022;-76
2023/04/18 07:40:26;;;;;;;39.97;27.10;;;;;;;;;;4998236;28;20113;-76
2023/04/18 07:42:52;;;;;;;38.22;25.60;;;;;;;;;;5010755;28;20105;-76
2023/04/18 07:45:18;;;;;;;40.58;27.55;;;;;;;;;;4999766;28;20018;-77
2023/04/18 07:47:44;;;;;;;37.70;27.25;;;;;;;;;;5003895;28;20042;-78
2023/04/18 07:50:11;;;;;;;39.78;25.55;;;;;;;;;;5006479;28;20030;-77
2023/04/18 07:52:37;;;;;;;40.70;26.30;;;;;;;;;;4997116;28;20038;-76
2023/04/18 07:55:03;;;;;;;41.60;27.17;;;;;;;;;;4981394;28;20018;-75
2023/04/18 07:57:29;;;;;;;44.05;26.15;;;;;;;;;;5005668;28;20030;-76
2023/04/18 07:59:55;;;;;;;37.05;24.27;;;;;;;;;;5002970;28;20440;-74
2023/04/18 08:02:21;;;;;;;39.05;24.67;;;;;;;;;;4998913;28;20041;-75
2023/04/18 08:04:48;;;;;;;40.13;25.48;;;;;;;;;;5007924;28;20448;-75
2023/04/18 08:07:14;;;;;;;37.90;24.30;;;;;;;;;;4998019;28;20049;-75
2023/04/18 08:09:40;;;;;;;38.88;24.23;;;;;;;;;;5002942;28;20397;-75
2023/04/18 08:12:06;;;;;;;35.45;23.63;;;;;;;;;;4998322;28;20022;-75
2023/04/18 08:14:32;;;;;;;39.30;24.08;;;;;;;;;;5000553;28;20042;-75
2023/04/18 08:16:58;;;;;;;33.92;23.42;;;;;;;;;;5004288;28;20043;-74
2023/04/18 08:19:25;;;;;;;33.45;23.63;;;;;;;;;;5005786;28;20026;-75
2023/04/18 08:21:51;;;;;;;33.85;23.88;;;;;;;;;;5003492;28;20098;-75
2023/04/18 08:24:17;;;;;;;34.35;23.42;;;;;;;;;;5006046;28;20026;-75
2023/04/18 08:26:43;;;;;;;33.55;23.65;;;;;;;;;;4990172;28;20031;-75
2023/04/18 08:29:09;;;;;;;29.40;21.90;;;;;;;;;;4998800;28;20096;-75
2023/04/18 08:31:35;;;;;;;28.23;20.92;;;;;;;;;;4992717;28;20069;-75
2023/04/18 08:34:01;;;;;;;31.73;20.52;;;;;;;;;;5004141;28;20049;-75
2023/04/18 08:36:27;;;;;;;31.60;20.50;;;;;;;;;;4997395;28;20079;-74
2023/04/18 08:38:53;;;;;;;36.92;22.35;;;;;;;;;;5007283;28;20053;-74
2023/04/18 08:41:22;;;;;;;30.02;21.00;;;;;;;;;;4997307;28;20061;-74
2023/04/18 08:43:48;;;;;;;31.27;20.48;;;;;;;;;;5003039;28;20015;-76
2023/04/18 08:46:14;;;;;;;33.75;20.77;;;;;;;;;;5004418;28;20500;-75
2023/04/18 08:48:41;;;;;;;28.45;18.80;;;;;;;;;;4996058;28;20109;-76
2023/04/18 08:51:08;;;;;;;27.63;19.50;;;;;;;;;;5008637;28;20038;-75
2023/04/18 08:53:34;;;;;;;31.20;19.40;;;;;;;;;;5001168;28;20023;-73
2023/04/18 08:56:00;;;;;;;27.02;19.27;;;;;;;;;;5001260;28;20038;-75
2023/04/18 08:58:26;;;;;;;27.52;19.85;;;;;;;;;;5007366;28;20480;-75
2023/04/18 09:00:53;;;;;;;29.77;19.42;;;;;;;;;;4995953;28;20023;-75
2023/04/18 09:03:36;;;;;;;28.67;19.95;;;;;;;;;;5006396;28;20030;-75
2023/04/18 09:06:07;;;;;;;28.48;19.27;;;;;;;;;;5002779;28;20054;-75
2023/04/18 09:08:34;;;;;;;30.77;18.88;;;;;;;;;;4996244;28;20029;-75
2023/04/18 09:11:19;;;;;;;32.58;20.95;;;;;;;;;;5008711;28;20492;-74
2023/04/18 09:13:46;;;;;;;28.27;20.25;;;;;;;;;;5000266;28;20376;-76
2023/04/18 09:16:13;;;;;;;30.65;20.77;;;;;;;;;;4999329;28;20104;-74
2023/04/18 09:18:41;;;;;;;33.47;21.05;;;;;;;;;;5008530;28;20511;-76
2023/04/18 09:21:19;;;;;;;32.10;21.00;;;;;;;;;;4996439;28;20547;-74
2023/04/18 09:23:49;;;;;;;33.30;21.90;;;;;;;;;;5002890;28;20024;-75
2023/04/18 09:26:24;;;;;;;34.53;22.05;;;;;;;;;;5005599;28;20033;-75
2023/04/18 09:28:51;;;;;;;33.03;21.05;;;;;;;;;;4995593;28;20027;-74
2023/04/18 09:31:17;;;;;;;34.75;22.10;;;;;;;;;;5006695;28;20477;-75
2023/04/18 09:33:53;;;;;;;31.55;21.10;;;;;;;;;;5001211;28;20109;-75
2023/04/18 09:36:20;;;;;;;32.20;21.60;;;;;;;;;;4998193;28;20026;-75
2023/04/18 09:38:46;;;;;;;32.33;21.20;;;;;;;;;;5007739;28;20117;-75
2023/04/18 09:41:14;;;;;;;38.75;23.13;;;;;;;;;;4995498;28;20034;-75
2023/04/18 09:43:40;;;;;;;37.42;22.95;;;;;;;;;;5003738;28;20101;-75
2023/04/18 09:46:07;;;;;;;35.92;24.55;;;;;;;;;;5003956;28;20464;-75
2023/04/18 09:48:33;;;;;;;41.58;25.95;;;;;;;;;;4995689;28;20029;-75
2023/04/18 09:51:01;;;;;;;39.70;25.95;;;;;;;;;;5006898;28;20073;-74
2023/04/18 09:53:27;;;;;;;39.15;26.33;;;;;;;;;;4998476;28;20025;-74
2023/04/18 09:55:54;;;;;;;45.08;28.92;;;;;;;;;;5001115;28;20030;-74
2023/04/18 09:58:24;;;;;;;43.72;27.58;;;;;;;;;;5006262;28;20032;-75
2023/04/18 10:00:51;;;;;;;44.33;29.48;;;;;;;;;;4992956;28;20033;-75
2023/04/18 10:03:18;;;;;;;45.00;28.77;;;;;;;;;;4997085;28;20392;-75
2023/04/18 10:05:44;;;;;;;50.97;32.20;;;;;;;;;;5001825;28;20638;-75
2023/04/18 10:08:12;;;;;;;49.67;30.67;;;;;;;;;;4999023;28;20358;-75
2023/04/18 10:10:39;;;;;;;50.03;31.08;;;;;;;;;;5008102;28;20030;-76
2023/04/18 10:13:07;;;;;;;45.60;30.98;;;;;;;;;;4994313;28;20045;-74
2023/04/18 10:15:33;;;;;;;43.75;30.10;;;;;;;;;;5004162;28;20500;-75
2023/04/18 10:17:59;;;;;;;48.60;31.88;;;;;;;;;;5002642;28;20083;-75
2023/04/18 10:20:26;;;;;;;41.60;29.65;;;;;;;;;;4996929;28;20027;-77
2023/04/18 10:22:53;;;;;;;41.03;29.88;;;;;;;;;;5008614;28;20029;-75
2023/04/18 10:25:34;;;;;;;45.03;31.70;;;;;;;;;;4997483;28;20361;-75
2023/04/18 10:28:04;;;;;;;49.25;33.17;;;;;;;;;;4999780;28;20069;-74
2023/04/18 10:30:39;;;;;;;48.30;34.40;;;;;;;;;;5006992;28;20026;-71
2023/04/18 10:33:34;;;;;;;44.00;30.23;;;;;;;;;;4979358;28;20311;-75
2023/04/18 10:36:02;;;;;;;43.10;30.77;;;;;;;;;;4995987;28;20378;-75
2023/04/18 10:38:28;;;;;;;36.55;28.80;;;;;;;;;;5006178;28;20057;-74
2023/04/18 10:41:13;;;;;;;38.95;29.48;;;;;;;;;;4993510;28;20041;-74
2023/04/18 10:43:58;;;;;;;38.28;28.58;;;;;;;;;;5006239;28;20049;-75
2023/04/18 10:46:24;;;;;;;42.90;29.92;;;;;;;;;;5009879;28;20049;-73
2023/04/18 10:49:10;;;;;;;39.67;30.15;;;;;;;;;;4998148;28;20026;-76
2023/04/18 10:51:36;;;;;;;46.15;33.22;;;;;;;;;;5006761;28;20030;-77
2023/04/18 10:54:03;;;;;;;37.95;29.13;;;;;;;;;;5006393;28;20061;-74
2023/04/18 10:56:29;;;;;;;38.90;28.52;;;;;;;;;;4997950;28;20125;-75
2023/04/18 10:58:55;;;;;;;41.45;31.40;;;;;;;;;;5002576;28;20034;-75
2023/04/18 11:01:25;;;;;;;44.15;32.45;;;;;;;;;;5008757;28;20408;-76
2023/04/18 11:03:52;;;;;;;47.13;33.10;;;;;;;;;;5005346;28;20018;-76
2023/04/18 11:06:18;;;;;;;51.70;33.50;;;;;;;;;;5001136;28;20030;-75
2023/04/18 11:08:44;;;;;;;43.80;31.73;;;;;;;;;;5012368;28;20080;-76
2023/04/18 11:11:10;;;;;;;42.83;32.45;;;;;;;;;;5002226;28;20026;-74
2023/04/18 11:13:36;;;;;;;47.97;33.88;;;;;;;;;;5014890;28;20021;-74
2023/04/18 11:16:03;;;;;;;48.67;35.70;;;;;;;;;;5013470;28;20091;-71
2023/04/18 11:18:41;;;;;;;57.25;37.38;;;;;;;;;;5015222;28;20030;-73
2023/04/18 11:21:07;;;;;;;56.33;38.38;;;;;;;;;;5015079;28;20622;-72
2023/04/18 11:23:33;;;;;;;59.58;41.03;;;;;;;;;;5013787;28;20496;-73
2023/04/18 11:25:59;;;;;;;54.85;40.03;;;;;;;;;;5015727;28;20033;-74
2023/04/18 11:28:26;;;;;;;57.50;39.47;;;;;;;;;;5015687;28;20026;-73
2023/04/18 11:30:56;;;;;;;60.05;42.33;;;;;;;;;;5014559;28;20018;-72
2023/04/18 11:33:26;;;;;;;57.05;39.13;;;;;;;;;;5014241;28;20029;-75
2023/04/18 11:35:57;;;;;;;54.10;37.38;;;;;;;;;;5014351;28;20755;-74
2023/04/18 11:38:27;;;;;;;59.80;39.33;;;;;;;;;;5014124;28;20042;-73
2023/04/18 11:40:53;;;;;;;57.33;40.10;;;;;;;;;;5014303;28;20049;-74
2023/04/18 11:43:23;;;;;;;57.42;39.90;;;;;;;;;;5014096;28;20026;-75
2023/04/18 11:45:57;;;;;;;60.38;41.35;;;;;;;;;;5013787;28;20022;-73
2023/04/18 11:48:23;;;;;;;50.78;37.22;;;;;;;;;;5013959;28;20033;-73
2023/04/18 11:50:49;;;;;;;53.90;38.75;;;;;;;;;;5013795;28;20033;-73
2023/04/18 11:53:31;;;;;;;59.65;39.60;;;;;;;;;;4999939;28;20548;-73
2023/04/18 11:56:02;;;;;;;65.53;44.38;;;;;;;;;;4994809;28;20133;-71
2023/04/18 11:58:32;;;;;;;53.58;39.22;;;;;;;;;;4993809;28;20026;-73
2023/04/18 12:00:58;;;;;;;52.15;36.83;;;;;;;;;;4993984;28;20030;-73
2023/04/18 12:03:24;;;;;;;55.90;38.28;;;;;;;;;;4994065;28;20532;-73
2023/04/18 12:05:58;;;;;;;54.50;39.72;;;;;;;;;;4994230;28;20049;-73
2023/04/18 12:08:25;;;;;;;49.30;35.50;;;;;;;;;;4993693;28;20026;-73
2023/04/18 12:10:52;;;;;;;48.65;36.40;;;;;;;;;;4993753;28;20025;-73
2023/04/18 12:13:18;;;;;;;52.30;35.15;;;;;;;;;;4993874;28;20532;-74
2023/04/18 12:15:46;;;;;;;56.28;37.33;;;;;;;;;;4993713;28;20088;-73
2023/04/18 12:18:13;;;;;;;49.15;34.92;;;;;;;;;;4993504;28;20069;-74
2023/04/18 12:20:48;;;;;;;46.88;33.33;;;;;;;;;;4993754;28;20042;-73
2023/04/18 12:23:31;;;;;;;54.75;36.95;;;;;;;;;;4992542;28;20022;-73
2023/04/18 12:26:06;;;;;;;56.00;36.45;;;;;;;;;;4993379;28;20030;-73
2023/04/18 12:28:34;;;;;;;44.15;33.17;;;;;;;;;;4993591;28;20031;-73
2023/04/18 12:31:00;;;;;;;48.97;34.28;;;;;;;;;;4993621;28;20029;-72
2023/04/18 12:33:26;;;;;;;51.55;36.03;;;;;;;;;;4991821;28;20076;-72
2023/04/18 12:35:52;;;;;;;52.40;36.22;;;;;;;;;;4991899;28;20128;-73
2023/04/18 12:38:22;;;;;;;55.20;33.92;;;;;;;;;;4992821;28;20488;-73
2023/04/18 12:40:48;;;;;;;49.13;35.33;;;;;;;;;;4993172;28;20036;-74
2023/04/18 12:43:14;;;;;;;49.50;34.70;;;;;;;;;;4993541;28;20066;-71
2023/04/18 12:45:40;;;;;;;51.08;35.03;;;;;;;;;;4993084;28;20484;-73
2023/04/18 12:48:06;;;;;;;52.17;34.90;;;;;;;;;;4993174;28;20492;-73
2023/04/18 12:50:32;;;;;;;49.08;34.72;;;;;;;;;;4991840;28;20058;-72
2023/04/18 12:52:59;;;;;;;47.78;32.72;;;;;;;;;;4990563;28;20077;-76
2023/04/18 12:55:25;;;;;;;49.78;34.75;;;;;;;;;;4992769;28;20443;-73
2023/04/18 12:57:55;;;;;;;48.40;34.15;;;;;;;;;;4991104;28;20038;-73
2023/04/18 13:00:28;;;;;;;46.13;30.67;;;;;;;;;;4991529;28;20030;-76
2023/04/18 13:02:55;;;;;;;43.17;29.77;;;;;;;;;;4992279;28;20030;-74
2023/04/18 13:05:21;;;;;;;42.10;29.58;;;;;;;;;;4992773;28;20387;-74
2023/04/18 13:07:48;;;;;;;40.00;27.88;;;;;;;;;;4991922;28;20093;-73
2023/04/18 13:10:16;;;;;;;41.03;27.92;;;;;;;;;;4993506;28;20230;-74
2023/04/18 13:12:42;;;;;;;43.03;30.38;;;;;;;;;;4991223;28;20030;-74
2023/04/18 13:15:09;;;;;;;37.20;27.80;;;;;;;;;;4992597;28;20400;-74
2023/04/18 13:17:35;;;;;;;44.70;30.58;;;;;;;;;;4990427;28;20085;-75
2023/04/18 13:20:03;;;;;;;40.17;28.70;;;;;;;;;;4991955;28;20037;-74
2023/04/18 13:22:30;;;;;;;43.65;28.67;;;;;;;;;;4991214;28;20062;-74
2023/04/18 13:24:56;;;;;;;42.25;27.73;;;;;;;;;;4992476;28;20038;-73
2023/04/18 13:27:22;;;;;;;41.90;27.15;;;;;;;;;;4990902;28;20025;-71
2023/04/18 13:29:48;;;;;;;35.55;26.35;;;;;;;;;;4992274;28;20031;-74
2023/04/18 13:32:14;;;;;;;38.63;25.70;;;;;;;;;;4992250;28;20095;-75
2023/04/18 13:34:45;;;;;;;43.90;28.35;;;;;;;;;;4992227;28;20028;-75
2023/04/18 13:37:11;;;;;;;41.42;25.15;;;;;;;;;;4991789;28;20026;-74
2023/04/18 13:39:37;;;;;;;38.55;24.33;;;;;;;;;;4992404;28;20038;-74
2023/04/18 13:42:03;;;;;;;32.90;24.13;;;;;;;;;;4990396;28;20495;-73
2023/04/18 13:44:30;;;;;;;45.33;24.75;;;;;;;;;;4991995;28;20050;-74
2023/04/18 13:46:56;;;;;;;34.70;23.98;;;;;;;;;;4992237;28;20516;-76
2023/04/18 13:49:22;;;;;;;34.42;23.75;;;;;;;;;;4991793;28;20504;-77
2023/04/18 13:51:52;;;;;;;33.17;23.90;;;;;;;;;;4992188;28;20037;-76
2023/04/18 13:54:18;;;;;;;37.70;23.63;;;;;;;;;;4991926;28;20023;-74
2023/04/18 13:56:45;;;;;;;35.40;25.35;;;;;;;;;;4991768;28;20389;-75
2023/04/18 13:59:11;;;;;;;34.97;24.00;;;;;;;;;;4991511;28;20507;-74
2023/04/18 14:01:37;;;;;;;38.80;24.45;;;;;;;;;;4992075;28;20058;-75
2023/04/18 14:04:03;;;;;;;31.02;22.90;;;;;;;;;;4990602;28;20038;-76
2023/04/18 14:06:29;;;;;;;37.35;23.65;;;;;;;;;;4991874;28;20023;-76
2023/04/18 14:08:55;;;;;;;34.97;22.83;;;;;;;;;;4991568;28;20035;-75
2023/04/18 14:11:22;;;;;;;28.05;21.10;;;;;;;;;;4991895;28;20027;-74
2023/04/18 14:13:48;;;;;;;32.22;21.92;;;;;;;;;;4992112;28;20453;-74
2023/04/18 14:16:14;;;;;;;31.48;21.33;;;;;;;;;;4991902;28;20026;-74